Home > Products > Valid Products > TAF

000
FTUS44 KOHX 042347 AAB
TAFCSV
TAF AMD
KCSV 042347Z 0500/0524 30006KT P6SM SCT030
      TEMPO 0500/0501 27007KT 6SM -TSRA OVC040CB
     FM051400 33013KT P6SM SCT025 BKN040=



000
FTUS44 KOHX 042347 AAB
TAFCSV
TAF AMD
KCSV 042347Z 0500/0524 30006KT P6SM SCT030
      TEMPO 0500/0501 27007KT 6SM -TSRA OVC040CB
     FM051400 33013KT P6SM SCT025 BKN040=



000
FTUS44 KOHX 042342 AAA
TAFCSV
TAF AMD
KCSV 042342Z 0500/0524 30006KT P6SM SCT030
      TEMPO 0500/0501 29011G25KT 2SM TSRA SCT015 BKN030CB OVC090
     FM051400 33013KT P6SM SCT025 BKN040=



000
FTUS44 KOHX 042341 AAA
TAFCKV
TAF AMD
KCKV 042341Z 0500/0524 34013KT P6SM SCT060
     FM051500 33013KT P6SM SCT025 BKN040=



000
FTUS44 KOHX 042320
TAFCSV
TAF
KCSV 042320Z 0500/0524 30006KT P6SM SCT050
      TEMPO 0500/0502 VRB15G25KT 4SM TSRA BKN050CB
     FM051400 33013KT P6SM SCT025 BKN040=



000
FTUS44 KOHX 042320
TAFBNA
TAF
KBNA 042320Z 0500/0524 31008KT P6SM SCT040 SCT100
     FM051500 33013KT P6SM SCT025 BKN040=



000
FTUS44 KOHX 042320
TAFCKV
TAF
KCKV 042320Z 0500/0524 30009KT P6SM SCT100
     FM051500 33013KT P6SM SCT025 BKN040=



000
FTUS44 KOHX 042320
TAFBNA
TAF
KBNA 042320Z 0500/0524 31008KT P6SM SCT040 SCT100
     FM051500 33013KT P6SM SCT025 BKN040=



000
FTUS44 KOHX 042320
TAFCSV
TAF
KCSV 042320Z 0500/0524 30006KT P6SM SCT050
      TEMPO 0500/0502 VRB15G25KT 4SM TSRA BKN050CB
     FM051400 33013KT P6SM SCT025 BKN040=



000
FTUS44 KOHX 042320
TAFCKV
TAF
KCKV 042320Z 0500/0524 30009KT P6SM SCT100
     FM051500 33013KT P6SM SCT025 BKN040=



000
FTUS44 KOHX 042140 AAB
TAFCSV
TAF AMD
KCSV 042140Z 0422/0518 32007KT P6SM VCSH BKN050
     FM042300 30006KT P6SM SCT050
     FM051400 33013KT P6SM SCT025 BKN040=



000
FTUS44 KOHX 042139 AAB
TAFBNA
TAF AMD
KBNA 042139Z 0422/0518 31008G17KT P6SM SCT040 SCT100
      TEMPO 0422/0501 VRB15G30KT 4SM TSRA BKN040CB
     FM051500 33013KT P6SM SCT025 BKN040=



000
FTUS44 KOHX 042136 AAB
TAFCKV
TAF AMD
KCKV 042136Z 0422/0518 30009KT P6SM SCT100
     FM051500 33013KT P6SM SCT025 BKN040=



000
FTUS44 KOHX 042112 AAA
TAFCSV
TAF AMD
KCSV 042112Z 0421/0518 32014KT 5SM -SHRA OVC050
      TEMPO 0421/0423 2SM BR
     FM042300 30008KT P6SM SCT050
     FM051400 33013KT P6SM SCT025 BKN040=



000
FTUS44 KOHX 042109 AAA
TAFBNA
TAF AMD
KBNA 042109Z 0421/0518 31008G17KT P6SM SCT040 SCT100
      TEMPO 0422/0501 -TSRA BKN040CB
     FM051500 33013KT P6SM SCT025 BKN040=



000
FTUS44 KOHX 042057 AAA
TAFCKV
TAF AMD
KCKV 042057Z 0421/0518 31018G28KT 6SM -RA VCTS OVC050CB
     FM042200 33010KT P6SM SCT100
     FM051500 33013KT P6SM SCT025 BKN040=



000
FTUS44 KOHX 041732
TAFCKV
TAF
KCKV 041732Z 0418/0518 31010G18KT 6SM -RA OVC050
     FM042000 33010KT P6SM SCT100
     FM051500 33013KT P6SM SCT025 BKN040=



000
FTUS44 KOHX 041732
TAFCSV
TAF
KCSV 041732Z 0418/0518 30008KT P6SM BKN050
     FM041930 32014KT 5SM -RA OVC050
     FM042300 30008KT P6SM SCT050
     FM051400 33013KT P6SM SCT025 BKN040=



000
FTUS44 KOHX 041732
TAFBNA
TAF
KBNA 041732Z 0418/0518 30010G18KT 6SM -RA OVC050
     FM042100 33008KT P6SM SCT100
     FM051500 33013KT P6SM SCT025 BKN040=



000
FTUS44 KOHX 041129
TAFBNA
TAF
KBNA 041129Z 0412/0512 28003KT P6SM SCT090
     FM041500 25009G16KT P6SM VCSH BKN050
     FM041700 27011G20KT P6SM VCTS OVC050CB
     FM041900 30012G21KT 5SM -TSRA OVC050CB
     FM042300 33012G20KT P6SM VCSH BKN070
     FM050000 32009KT P6SM SCT100=



000
FTUS44 KOHX 041129
TAFCSV
TAF
KCSV 041129Z 0412/0512 26003KT 6SM BR SCT100
     FM041400 27009KT P6SM SCT100
     FM041800 27012G18KT P6SM VCTS OVC040CB
     FM042000 29013G20KT 5SM -TSRA OVC030CB
     FM050100 31010G15KT P6SM VCSH BKN035
     FM050300 30008KT P6SM SCT050=



000
FTUS44 KOHX 041129
TAFCKV
TAF
KCKV 041129Z 0412/0512 26003KT P6SM SCT100
     FM041400 24011G18KT P6SM VCSH BKN050
     FM041600 29011G20KT 6SM -RA VCTS OVC050CB
     FM041800 31013G22KT 5SM -TSRA BKN050CB OVC100
     FM042200 33012G18KT P6SM VCSH BKN060
     FM050000 33010KT P6SM SCT100=



000
FTUS44 KOHX 040520
TAFCKV
TAF
KCKV 040520Z 0406/0506 26003KT P6SM SCT100
     FM041500 24011G20KT P6SM VCTS OVC050CB
     FM041800 29011G20KT 4SM TSRA OVC050CB
     FM042100 31014G25KT 5SM -TSRA BKN050CB OVC100
     FM050100 33010KT P6SM SCT100=



000
FTUS44 KOHX 040520
TAFBNA
TAF
KBNA 040520Z 0406/0506 28003KT P6SM SCT090
     FM041500 25009G18KT P6SM VCSH BKN050 OVC100
     FM041700 27011G20KT P6SM VCTS OVC050CB
     FM041900 29011G20KT 4SM TSRA OVC050CB
     FM042200 31012G22KT 5SM -TSRA BKN050CB OVC100
     FM050200 33008KT P6SM SCT100=



000
FTUS44 KOHX 040520
TAFCSV
TAF
KCSV 040520Z 0406/0506 26003KT P6SM OVC080
     FM041400 27009KT P6SM BKN100
     FM041800 27012KT P6SM VCTS OVC030CB
     FM042100 29011G17KT 4SM TSRA OVC030CB
     FM050000 31010KT 5SM -TSRA BKN030CB=



000
FTUS44 KOHX 032340
TAFCKV
TAF
KCKV 032340Z 0400/0424 32008KT P6SM OVC080
     FM040500 29004KT P6SM BKN250
     FM041400 24012KT P6SM VCSH BKN050 OVC100
     FM041600 24011G20KT P6SM VCTS OVC050CB
     FM041800 29011G20KT 4SM TSRA OVC050CB
     FM042100 31014G25KT 5SM -TSRA BKN050CB OVC100=



000
FTUS44 KOHX 032340
TAFCSV
TAF
KCSV 032340Z 0400/0424 31008KT P6SM OVC060
     FM040800 30004KT 4SM BR BKN200
     FM041400 27009KT P6SM BKN100
     FM041700 27010KT P6SM VCSH BKN030 OVC080
     FM041900 27012KT P6SM VCTS OVC030CB
     FM042100 29011G17KT 4SM TSRA OVC030CB=



000
FTUS44 KOHX 032340
TAFBNA
TAF
KBNA 032340Z 0400/0424 35009KT P6SM SCT040 OVC070
     FM040600 30004KT P6SM BKN250
     FM041500 25009G18KT P6SM VCSH BKN050 OVC100
     FM041700 27011G20KT P6SM VCTS OVC050CB
     FM041900 29011G20KT 4SM TSRA OVC050CB
     FM042200 31012G22KT 5SM -TSRA BKN050CB OVC100=



000
FTUS44 KOHX 031929 AAA
TAFCSV
TAF AMD
KCSV 031929Z 0319/0418 32011KT P6SM SCT025 BKN060
     FM040000 30004KT P6SM BKN040
     FM041500 28010G18KT P6SM OVC040=



000
FTUS44 KOHX 031734
TAFCKV
TAF
KCKV 031734Z 0318/0418 30008KT P6SM SCT025 BKN035
     FM040000 29004KT P6SM BKN080
     FM041400 28010G20KT P6SM OVC050
     FM041700 30012G25KT P6SM VCSH OVC035=



000
FTUS44 KOHX 031734
TAFCSV
TAF
KCSV 031734Z 0318/0418 26008G17KT P6SM BKN025 BKN035
     FM040000 30004KT P6SM BKN040
     FM041500 28010G18KT P6SM OVC040=



000
FTUS44 KOHX 031734
TAFCSV
TAF
KCSV 031734Z 0318/0418 26008G17KT P6SM BKN025 BKN035
     FM040000 30004KT P6SM BKN040
     FM041500 28010G18KT P6SM OVC040=



000
FTUS44 KOHX 031734
TAFCKV
TAF
KCKV 031734Z 0318/0418 30008KT P6SM SCT025 BKN035
     FM040000 29004KT P6SM BKN080
     FM041400 28010G20KT P6SM OVC050
     FM041700 30012G25KT P6SM VCSH OVC035=



000
FTUS44 KOHX 031734
TAFBNA
TAF
KBNA 031734Z 0318/0418 30008KT P6SM SCT025 BKN035
     FM040000 30004KT P6SM BKN060
     FM041400 28010G18KT P6SM OVC050
     FM041700 30012G25KT P6SM VCSH OVC035=



000
FTUS44 KOHX 031734
TAFBNA
TAF
KBNA 031734Z 0318/0418 30008KT P6SM SCT025 BKN035
     FM040000 30004KT P6SM BKN060
     FM041400 28010G18KT P6SM OVC050
     FM041700 30012G25KT P6SM VCSH OVC035=



000
FTUS44 KOHX 031637 AAC
TAFCSV
TAF AMD
KCSV 031637Z 0317/0412 27008KT P6SM BKN024 BKN035
     FM040000 30004KT P6SM BKN040=



000
FTUS44 KOHX 031530 AAB
TAFCSV
TAF AMD
KCSV 031530Z 0316/0412 29007KT P6SM FEW018 SCT026
     FM031700 31009KT P6SM OVC035
     FM040000 30004KT P6SM BKN040=



000
FTUS44 KOHX 031529 AAA
TAFBNA
TAF AMD
KBNA 031529Z 0315/0412 33005KT P6SM SCT022 BKN027 BKN050
     FM031800 33010KT P6SM BKN050
     FM040000 30004KT P6SM BKN060=



000
FTUS44 KOHX 031155 AAA
TAFCSV
TAF AMD
KCSV 031155Z 0312/0412 31004KT 6SM BR OVC020
      TEMPO 0312/0313 4SM BR OVC007
     FM031500 30007KT P6SM OVC015
     FM031700 31009KT P6SM OVC035
     FM040000 30004KT P6SM BKN040=



000
FTUS44 KOHX 031122
TAFCSV
TAF
KCSV 031122Z 0312/0412 31004KT 4SM BR OVC007
      TEMPO 0312/0313 2SM BR OVC004
     FM031500 30007KT P6SM OVC015
     FM031700 31009KT P6SM OVC035
     FM040000 30004KT P6SM BKN040=



000
FTUS44 KOHX 031122
TAFCKV
TAF
KCKV 031122Z 0312/0412 34005KT 6SM BR OVC050
     FM031500 33008KT P6SM BKN035
     FM040000 29004KT P6SM BKN080=



000
FTUS44 KOHX 031122
TAFBNA
TAF
KBNA 031122Z 0312/0412 34005KT 6SM BR BKN050
     FM031500 32007KT P6SM BKN035
     FM031800 33010KT P6SM BKN050
     FM040000 30004KT P6SM BKN060=



000
FTUS44 KOHX 030559 AAB
TAFCSV
TAF AMD
KCSV 030559Z 0306/0406 29003KT 4SM BR OVC007
      TEMPO 0306/0309 2SM BR OVC004
     FM030900 31004KT 1SM BR OVC004
     FM031500 30007KT P6SM BKN015
     FM031800 31010KT P6SM BKN035
     FM040000 30005KT P6SM BKN040=



000
FTUS44 KOHX 030559 AAB
TAFCSV
TAF AMD
KCSV 030559Z 0306/0406 29003KT 4SM BR OVC007
      TEMPO 0306/0309 2SM BR OVC004
     FM030900 31004KT 1SM BR OVC004
     FM031500 30007KT P6SM BKN015
     FM031800 31010KT P6SM BKN035
     FM040000 30005KT P6SM BKN040=



000
FTUS44 KOHX 030553 AAA
TAFCSV
TAF AMD
KCSV 030553Z 0306/0406 29003KT 4SM BR OVC015
     FM030700 30002KT 4SM BR OVC008
     FM030900 31004KT 1SM BR OVC004
     FM031500 30007KT P6SM BKN015
     FM031800 31010KT P6SM BKN035
     FM040000 30005KT P6SM BKN040=



000
FTUS44 KOHX 030553 AAA
TAFCSV
TAF AMD
KCSV 030553Z 0306/0406 29003KT 4SM BR OVC015
     FM030700 30002KT 4SM BR OVC008
     FM030900 31004KT 1SM BR OVC004
     FM031500 30007KT P6SM BKN015
     FM031800 31010KT P6SM BKN035
     FM040000 30005KT P6SM BKN040=



000
FTUS44 KOHX 030523
TAFCSV
TAF
KCSV 030523Z 0306/0406 29003KT 6SM BR OVC015
     FM030700 30002KT 4SM BR OVC008
     FM030900 31004KT 1SM BR OVC004
     FM031500 30007KT P6SM BKN015
     FM031800 31010KT P6SM BKN035
     FM040000 30005KT P6SM BKN040=



000
FTUS44 KOHX 030523
TAFBNA
TAF
KBNA 030523Z 0306/0406 33005KT 6SM BR SCT015 BKN035
     FM030900 34002KT 4SM BR OVC015
     FM031500 32007KT P6SM BKN015
     FM031800 33010KT P6SM BKN035
     FM040000 30004KT P6SM BKN040=



000
FTUS44 KOHX 030523
TAFCKV
TAF
KCKV 030523Z 0306/0406 33005KT 6SM BR SCT015 BKN035
     FM030900 34002KT 4SM BR OVC015
     FM031500 32007KT P6SM BKN015
     FM031800 33010KT P6SM BKN035
     FM040000 29004KT P6SM BKN040=



000
FTUS44 KOHX 030523
TAFCKV
TAF
KCKV 030523Z 0306/0406 33005KT 6SM BR SCT015 BKN035
     FM030900 34002KT 4SM BR OVC015
     FM031500 32007KT P6SM BKN015
     FM031800 33010KT P6SM BKN035
     FM040000 29004KT P6SM BKN040=



000
FTUS44 KOHX 030523
TAFBNA
TAF
KBNA 030523Z 0306/0406 33005KT 6SM BR SCT015 BKN035
     FM030900 34002KT 4SM BR OVC015
     FM031500 32007KT P6SM BKN015
     FM031800 33010KT P6SM BKN035
     FM040000 30004KT P6SM BKN040=



000
FTUS44 KOHX 030523
TAFCSV
TAF
KCSV 030523Z 0306/0406 29003KT 6SM BR OVC015
     FM030700 30002KT 4SM BR OVC008
     FM030900 31004KT 1SM BR OVC004
     FM031500 30007KT P6SM BKN015
     FM031800 31010KT P6SM BKN035
     FM040000 30005KT P6SM BKN040=



000
FTUS44 KOHX 030424 AAB
TAFCSV
TAF AMD
KCSV 030424Z 0304/0324 33005KT P6SM BKN015 OVC025
     FM030700 34002KT 4SM BR OVC004
     FM030900 34004KT 1SM BR OVC002
     FM031500 30007KT P6SM BKN015
     FM031800 31010KT P6SM BKN035=



000
FTUS44 KOHX 030424 AAB
TAFCSV
TAF AMD
KCSV 030424Z 0304/0324 33005KT P6SM BKN015 OVC025
     FM030700 34002KT 4SM BR OVC004
     FM030900 34004KT 1SM BR OVC002
     FM031500 30007KT P6SM BKN015
     FM031800 31010KT P6SM BKN035=



000
FTUS44 KOHX 030313 AAA
TAFCSV
TAF AMD
KCSV 030313Z 0303/0324 27006KT P6SM OVC035
     FM030500 33005KT 5SM BR OVC015
     FM030700 34002KT 4SM BR OVC004
     FM030900 34004KT 1SM BR OVC002
     FM031500 30007KT P6SM BKN015
     FM031800 31010KT P6SM BKN035=



000
FTUS44 KOHX 022335
TAFCSV
TAF
KCSV 022335Z 0300/0324 27006KT P6SM OVC035
     FM030300 33005KT 5SM BR OVC015
     FM030500 34002KT 4SM BR OVC004
     FM030900 34004KT 1SM BR OVC002
     FM031500 30007KT P6SM BKN015
     FM031800 31010KT P6SM BKN035=



000
FTUS44 KOHX 022335
TAFBNA
TAF
KBNA 022335Z 0300/0324 35005KT P6SM VCSH BKN011 BKN025
     FM030200 34006KT P6SM BKN035 OVC050
     FM030600 33005KT 5SM BR OVC008
     FM030900 34002KT 4SM BR OVC004
     FM031500 32007KT P6SM BKN015
     FM031800 33010KT P6SM BKN035=



000
FTUS44 KOHX 022335
TAFCKV
TAF
KCKV 022335Z 0300/0324 34005KT P6SM BKN030 BKN050
     FM030600 33005KT 5SM BR OVC020
     FM030900 34002KT 4SM BR OVC005
     FM031500 32007KT P6SM BKN015
     FM031800 33010KT P6SM BKN035=



000
FTUS44 KOHX 022335
TAFCKV
TAF
KCKV 022335Z 0300/0324 34005KT P6SM BKN030 BKN050
     FM030600 33005KT 5SM BR OVC020
     FM030900 34002KT 4SM BR OVC005
     FM031500 32007KT P6SM BKN015
     FM031800 33010KT P6SM BKN035=



000
FTUS44 KOHX 022335
TAFBNA
TAF
KBNA 022335Z 0300/0324 35005KT P6SM VCSH BKN011 BKN025
     FM030200 34006KT P6SM BKN035 OVC050
     FM030600 33005KT 5SM BR OVC008
     FM030900 34002KT 4SM BR OVC004
     FM031500 32007KT P6SM BKN015
     FM031800 33010KT P6SM BKN035=



000
FTUS44 KOHX 022335
TAFCSV
TAF
KCSV 022335Z 0300/0324 27006KT P6SM OVC035
     FM030300 33005KT 5SM BR OVC015
     FM030500 34002KT 4SM BR OVC004
     FM030900 34004KT 1SM BR OVC002
     FM031500 30007KT P6SM BKN015
     FM031800 31010KT P6SM BKN035=



000
FTUS44 KOHX 022106 AAC
TAFBNA
TAF AMD
KBNA 022106Z 0221/0318 35005KT P6SM VCSH BKN005 BKN025
     FM022300 34006KT P6SM BKN025 OVC040
     FM030500 33005KT P6SM OVC040=



000
FTUS44 KOHX 022038 AAB
TAFBNA
TAF AMD
KBNA 022038Z 0221/0318 35005KT P6SM VCSH SCT005 BKN025
      TEMPO 0221/0222 BKN005
     FM022200 34006KT P6SM BKN025 OVC040
     FM030500 33005KT P6SM OVC040=



000
FTUS44 KOHX 022038 AAB
TAFCKV
TAF AMD
KCKV 022038Z 0221/0318 36005KT P6SM BKN015
     FM022300 32006KT P6SM SCT035 BKN080=



000
FTUS44 KOHX 022038 AAB
TAFCKV
TAF AMD
KCKV 022038Z 0221/0318 36005KT P6SM BKN015
     FM022300 32006KT P6SM SCT035 BKN080=



000
FTUS44 KOHX 021846 AAA
TAFCKV
TAF AMD
KCKV 021846Z 0219/0318 35005KT P6SM BKN006
     FM022000 32006KT P6SM SCT035 BKN080=



000
FTUS44 KOHX 021845 AAA
TAFBNA
TAF AMD
KBNA 021845Z 0219/0318 VRB05KT 6SM -SHRA BR VCTS SCT006 OVC050CB
      TEMPO 0219/0220 2SM TSRA BKN008 OVC015CB
     FM022000 34006KT P6SM BKN025 OVC040
     FM030500 33005KT P6SM OVC040=



000
FTUS44 KOHX 021720
TAFBNA
TAF
KBNA 021720Z 0218/0318 33010KT 4SM SHRA BR VCTS FEW008 OVC025CB
      TEMPO 0218/0220 2SM TSRA BKN008 OVC015CB
     FM022000 34006KT P6SM BKN025 OVC040
     FM030500 33005KT P6SM OVC040=



000
FTUS44 KOHX 021720
TAFCSV
TAF
KCSV 021720Z 0218/0318 19005KT P6SM VCTS SCT020CB BKN040
      TEMPO 0218/0222 2SM TSRA OVC015CB
     FM030000 27006KT 5SM BR OVC015
     FM030600 30003KT 3SM BR OVC007=



000
FTUS44 KOHX 021720
TAFCKV
TAF
KCKV 021720Z 0218/0318 33007KT 5SM -SHRA BR VCTS SCT070CB OVC100
     FM021900 32006KT P6SM BKN035 OVC100=



000
FTUS44 KOHX 021553 AAB
TAFCKV
TAF AMD
KCKV 021553Z 0216/0312 30005KT 5SM -SHRA BR VCTS BKN040CB OVC070
      TEMPO 0216/0218 2SM TSRA OVC030CB
     FM021900 32005KT P6SM SCT025 BKN040
     FM030900 33005KT P6SM SCT100=



000
FTUS44 KOHX 021553 AAB
TAFCKV
TAF AMD
KCKV 021553Z 0216/0312 30005KT 5SM -SHRA BR VCTS BKN040CB OVC070
      TEMPO 0216/0218 2SM TSRA OVC030CB
     FM021900 32005KT P6SM SCT025 BKN040
     FM030900 33005KT P6SM SCT100=



000
FTUS44 KOHX 021552 AAA
TAFBNA
TAF AMD
KBNA 021552Z 0216/0312 36006KT 5SM -SHRA BR VCTS OVC025CB
      TEMPO 0216/0220 1SM +TSRA OVC015CB
     FM022100 34006KT P6SM BKN025 OVC050=



000
FTUS44 KOHX 021406 AAA
TAFCKV
TAF AMD
KCKV 021406Z 0214/0312 30005KT 5SM -TSRA BR BKN040CB OVC060
      TEMPO 0214/0218 2SM TSRA OVC025CB
     FM021800 32005KT P6SM SCT025 BKN040
     FM030900 33005KT P6SM SCT100=



000
FTUS44 KOHX 021120
TAFCSV
TAF
KCSV 021120Z 0212/0312 VRB03KT P6SM VCSH OVC060
      TEMPO 0220/0224 5SM -TSRA OVC025CB
     FM030200 30003KT 5SM BR OVC015
     FM030600 32004KT 5SM BR OVC007=



000
FTUS44 KOHX 021120
TAFCKV
TAF
KCKV 021120Z 0212/0312 34004KT P6SM OVC040
      TEMPO 0217/0221 5SM -SHRA
     FM030900 31005KT P6SM SCT100=



000
FTUS44 KOHX 021120
TAFBNA
TAF
KBNA 021120Z 0212/0312 02008KT P6SM VCSH OVC019
     FM021600 36006KT P6SM VCSH OVC035
      TEMPO 0219/0223 5SM -TSRA OVC025CB=



000
FTUS44 KOHX 021120
TAFCKV
TAF
KCKV 021120Z 0212/0312 34004KT P6SM BKN040 OVC045
      TEMPO 0217/0221 5SM -SHRA
     FM030900 31005KT P6SM SCT100=



000
FTUS44 KOHX 020936 AAC
TAFCKV
TAF AMD
KCKV 020936Z 0210/0306 01007KT P6SM SCT027 OVC040
     FM021400 30005KT 6SM -SHRA BR SCT025 BKN040
     FM022200 29007KT P6SM SCT035 BKN100
     FM030300 34005KT P6SM SCT100=



000
FTUS44 KOHX 020936 AAA
TAFBNA
TAF AMD
KBNA 020936Z 0210/0306 VRB03KT P6SM VCSH BKN022 BKN028 BKN070
     FM021600 01005KT 6SM -SHRA BR SCT025 BKN040 PROB30 0220/0224
      2SM TSRA BKN025CB
     FM030200 34007KT P6SM SCT035 BKN100=



000
FTUS44 KOHX 020936 AAA
TAFCSV
TAF AMD
KCSV 020936Z 0210/0306 22004KT P6SM SKC
     FM021400 13005KT P6SM VCSH SCT025 BKN050
     FM021900 22007KT 6SM -SHRA BR BKN020 OVC040 PROB30 0222/0302
      2SM TSRA BKN008CB OVC015=



000
FTUS44 KOHX 020854 AAB
TAFCKV
TAF AMD
KCKV 020854Z 0209/0306 35009KT P6SM SCT016 OVC021
     FM021400 30005KT 6SM -SHRA BR SCT025 BKN040
     FM022200 29007KT P6SM SCT035 BKN100
     FM030300 34005KT P6SM SCT100=



000
FTUS44 KOHX 020735 AAA
TAFCKV
TAF AMD
KCKV 020735Z 0208/0306 34008KT P6SM OVC013
     FM021400 30005KT 6SM -SHRA BR SCT025 BKN040
     FM022200 29007KT P6SM SCT035 BKN100
     FM030300 34005KT P6SM SCT100=



000
FTUS44 KOHX 020520
TAFCSV
TAF
KCSV 020520Z 0206/0306 22004KT P6SM SCT100
      TEMPO 0209/0213 00000KT 4SM BR BKN015
     FM021400 13005KT P6SM VCSH SCT025 BKN050
     FM021900 22007KT 6SM -SHRA BR BKN020 OVC040 PROB30 0222/0302
      2SM TSRA BKN008CB OVC015=



000
FTUS44 KOHX 020520
TAFCKV
TAF
KCKV 020520Z 0206/0306 21006KT P6SM SCT100
     FM020900 29005KT P6SM VCSH SCT035 BKN080
     FM021400 30005KT 6SM -SHRA BR SCT025 BKN040
     FM022200 29007KT P6SM SCT035 BKN100
     FM030300 34005KT P6SM SCT100=



000
FTUS44 KOHX 020520
TAFBNA
TAF
KBNA 020520Z 0206/0306 22006KT P6SM SCT100
     FM021000 20005KT P6SM VCSH SCT040 BKN080
     FM021600 01005KT 6SM -SHRA BR SCT025 BKN040 PROB30 0220/0224
      2SM TSRA BKN025CB
     FM030200 34007KT P6SM SCT035 BKN100=



000
FTUS44 KOHX 020520
TAFBNA
TAF
KBNA 020520Z 0206/0306 22006KT P6SM SCT100
     FM021000 20005KT P6SM VCSH SCT040 BKN080
     FM021600 01005KT 6SM -SHRA BR SCT025 BKN040 PROB30 0220/0224
      2SM TSRA BKN025CB
     FM030200 34007KT P6SM SCT035 BKN100=



000
FTUS44 KOHX 020520
TAFCSV
TAF
KCSV 020520Z 0206/0306 22004KT P6SM SCT100
      TEMPO 0209/0213 00000KT 4SM BR BKN015
     FM021400 13005KT P6SM VCSH SCT025 BKN050
     FM021900 22007KT 6SM -SHRA BR BKN020 OVC040 PROB30 0222/0302
      2SM TSRA BKN008CB OVC015=



000
FTUS44 KOHX 020520
TAFCKV
TAF
KCKV 020520Z 0206/0306 21006KT P6SM SCT100
     FM020900 29005KT P6SM VCSH SCT035 BKN080
     FM021400 30005KT 6SM -SHRA BR SCT025 BKN040
     FM022200 29007KT P6SM SCT035 BKN100
     FM030300 34005KT P6SM SCT100=



    US Dept of Commerce
    National Oceanic and Atmospheric Administration
    National Weather Service
    1325 East West Highway
    Silver Spring, MD 20910
    Page Author: NWS Internet Services Team
Disclaimer
Information Quality
Credits
Glossary
Privacy Policy
Freedom of Information Act (FOIA)
About Us
Career Opportunities